createdAt,value
2023-02-03T00:03:31.515Z,100152.66
2023-02-03T00:06:18.646Z,100158.91
2023-02-03T00:09:06.073Z,100154.72
2023-02-03T00:11:54.332Z,100159.16
2023-02-03T00:14:41.416Z,100149.28
2023-02-03T00:17:28.457Z,100154.47
2023-02-03T00:20:15.736Z,100148.13
2023-02-03T00:23:07.534Z,100155.88
2023-02-03T00:25:54.583Z,100141.94
2023-02-03T00:28:42.316Z,100144.50
2023-02-03T00:31:29.399Z,100156.91
2023-02-03T00:34:16.513Z,100141.63
2023-02-03T00:37:03.547Z,100151.50
2023-02-03T00:39:50.554Z,100153.66
2023-02-03T00:42:37.717Z,100166.75
2023-02-03T00:45:24.711Z,100156.50
2023-02-03T00:48:12.191Z,100143.22
2023-02-03T00:50:59.416Z,100137.03
2023-02-03T00:53:47.316Z,100152.41
2023-02-03T00:56:34.288Z,100158.34
2023-02-03T00:59:21.403Z,100161.88
2023-02-03T01:02:08.500Z,100151.28
2023-02-03T01:04:55.624Z,100155.50
2023-02-03T01:07:42.639Z,100140.94
2023-02-03T01:10:30.448Z,100147.56
2023-02-03T01:13:17.447Z,100145.25
2023-02-03T01:16:07.919Z,100140.09
2023-02-03T01:18:55.613Z,100124.63
2023-02-03T01:21:42.795Z,100135.53
2023-02-03T01:24:30.902Z,100160.00
2023-02-03T01:27:17.951Z,100148.56
2023-02-03T01:30:05.373Z,100145.06
2023-02-03T01:32:52.380Z,100137.13
2023-02-03T01:35:39.382Z,100132.88
2023-02-03T01:38:26.455Z,100119.78
2023-02-03T01:41:16.454Z,100138.09
2023-02-03T01:44:38.492Z,100121.69
2023-02-03T01:47:36.586Z,100126.94
2023-02-03T01:50:30.292Z,100111.13
2023-02-03T01:53:17.377Z,100109.34
2023-02-03T01:56:05.349Z,100102.53
2023-02-03T01:58:52.504Z,100093.53
2023-02-03T02:01:40.205Z,100099.59
2023-02-03T02:04:34.494Z,100094.84
2023-02-03T02:07:21.517Z,100082.47
2023-02-03T02:10:09.150Z,100082.66
2023-02-03T02:12:58.036Z,100077.13
2023-02-03T02:15:57.231Z,100083.28
2023-02-03T02:19:07.295Z,100075.66
2023-02-03T02:22:05.851Z,100066.00
2023-02-03T02:25:14.782Z,100071.47
2023-02-03T02:28:10.917Z,100073.00
2023-02-03T02:31:18.068Z,100059.38
2023-02-03T02:34:14.074Z,100052.44
2023-02-03T02:37:19.713Z,100049.28
2023-02-03T02:40:26.085Z,100053.03
2023-02-03T02:43:34.985Z,100049.72
2023-02-03T02:46:32.130Z,100054.22
2023-02-03T02:49:31.046Z,100035.31
2023-02-03T02:52:21.754Z,100033.66
2023-02-03T02:55:16.654Z,100045.56
2023-02-03T02:58:14.695Z,100033.41
2023-02-03T03:01:04.043Z,100036.13
2023-02-03T03:03:52.207Z,100025.53
2023-02-03T03:06:46.357Z,100017.47
2023-02-03T03:09:36.219Z,100020.38
2023-02-03T03:12:51.413Z,100012.25
2023-02-03T03:15:41.034Z,100008.94
2023-02-03T03:18:34.403Z,100006.16
2023-02-03T03:24:01.652Z,99999.22
2023-02-03T03:26:57.417Z,99987.94
2023-02-03T03:29:53.612Z,99997.88
2023-02-03T03:32:41.132Z,99973.50
2023-02-03T03:36:17.284Z,99991.81
2023-02-03T03:39:17.754Z,99995.00
2023-02-03T03:42:23.482Z,99988.09
2023-02-03T03:45:14.985Z,99992.28
2023-02-03T03:48:16.425Z,99995.38
2023-02-03T03:51:11.006Z,99980.22
2023-02-03T03:54:03.437Z,99987.84
2023-02-03T03:57:34.671Z,100004.44
2023-02-03T04:00:23.901Z,99996.03
2023-02-03T04:03:33.477Z,99994.56
2023-02-03T04:06:20.603Z,99999.28
2023-02-03T04:09:27.703Z,100002.72
2023-02-03T04:12:23.498Z,99986.31
2023-02-03T04:15:10.480Z,99995.84
2023-02-03T04:17:57.651Z,99980.28
2023-02-03T04:20:44.703Z,99987.31
2023-02-03T04:23:31.721Z,100001.88
2023-02-03T04:26:18.823Z,99999.94
2023-02-03T04:29:06.093Z,100001.94
2023-02-03T04:31:53.190Z,99975.66
2023-02-03T04:34:40.232Z,99983.34
2023-02-03T04:37:27.492Z,99983.44
2023-02-03T04:40:14.870Z,99990.22
2023-02-03T04:43:06.945Z,99988.44
2023-02-03T04:45:54.137Z,99969.06
2023-02-03T04:48:41.145Z,99981.38
2023-02-03T04:51:28.203Z,99974.56
2023-02-03T04:54:15.464Z,99977.88
2023-02-03T04:57:02.504Z,99988.31
2023-02-03T04:59:49.623Z,99984.72
2023-02-03T05:02:36.714Z,99983.72
2023-02-03T05:05:23.696Z,99974.88
2023-02-03T05:08:10.745Z,99988.22
2023-02-03T05:10:58.767Z,99981.75
2023-02-03T05:13:46.839Z,99968.16
2023-02-03T05:16:33.955Z,99984.09
2023-02-03T05:19:21.082Z,99985.75
2023-02-03T05:22:08.278Z,99988.09
2023-02-03T05:24:55.389Z,99991.47
2023-02-03T05:27:43.517Z,99985.38
2023-02-03T05:30:32.735Z,99983.53
2023-02-03T05:33:20.148Z,99988.59
2023-02-03T05:36:17.502Z,99990.47
2023-02-03T05:39:04.617Z,99990.81
2023-02-03T05:41:57.223Z,99994.69
2023-02-03T05:44:45.279Z,99996.53
2023-02-03T05:47:32.387Z,99992.97
2023-02-03T05:50:19.601Z,99976.81
2023-02-03T05:53:07.414Z,99985.16
2023-02-03T05:55:54.633Z,99989.38
2023-02-03T05:58:41.922Z,99960.50
2023-02-03T06:01:29.076Z,99966.34
2023-02-03T06:04:16.376Z,99967.06
2023-02-03T06:07:06.603Z,99952.34
2023-02-03T06:09:53.658Z,99974.13
2023-02-03T06:12:40.832Z,99985.56
2023-02-03T06:15:28.015Z,99974.19
2023-02-03T06:18:15.288Z,99978.41
2023-02-03T06:21:02.496Z,99968.81
2023-02-03T06:23:49.547Z,99931.25
2023-02-03T06:26:36.773Z,99954.00
2023-02-03T06:29:23.912Z,99961.31
2023-02-03T06:32:11.144Z,99966.88
2023-02-03T06:34:58.190Z,99965.03
2023-02-03T06:37:45.347Z,99944.22
2023-02-03T06:41:00.430Z,99958.00
2023-02-03T06:43:47.519Z,99939.69
2023-02-03T06:46:34.627Z,99940.19
2023-02-03T06:49:22.295Z,99914.50
2023-02-03T06:52:09.461Z,99909.69
2023-02-03T06:54:56.831Z,99897.44
2023-02-03T06:57:47.529Z,99885.03
2023-02-03T07:00:34.663Z,99891.69
2023-02-03T07:03:21.717Z,99892.16
2023-02-03T07:06:08.812Z,99898.94
2023-02-03T07:08:57.468Z,99914.06
2023-02-03T07:11:44.593Z,99913.72
2023-02-03T07:14:31.693Z,99906.78
2023-02-03T07:17:18.720Z,99916.78
2023-02-03T07:20:06.381Z,99914.59
2023-02-03T07:22:57.666Z,99920.44
2023-02-03T07:25:45.026Z,99918.88
2023-02-03T07:28:34.968Z,99920.34
2023-02-03T07:31:22.545Z,99921.91
2023-02-03T07:34:09.852Z,99910.47
2023-02-03T07:36:57.482Z,99906.53
2023-02-03T07:39:46.292Z,99887.31
2023-02-03T07:42:33.316Z,99914.97
2023-02-03T07:45:22.469Z,99919.34
2023-02-03T07:48:09.691Z,99905.00
2023-02-03T07:50:56.762Z,99911.19
2023-02-03T07:53:43.889Z,99915.09
2023-02-03T07:56:32.806Z,99914.81
2023-02-03T07:59:19.915Z,99913.09
2023-02-03T08:02:09.320Z,99914.88
2023-02-03T08:04:58.189Z,99903.03
2023-02-03T08:07:46.021Z,99904.44
2023-02-03T08:10:33.166Z,99912.31
2023-02-03T08:13:20.246Z,99929.56
2023-02-03T08:16:07.674Z,99917.56
2023-02-03T08:18:54.858Z,99929.41
2023-02-03T08:21:41.943Z,99940.94
2023-02-03T08:24:29.037Z,99932.97
2023-02-03T08:27:20.764Z,99937.59
2023-02-03T08:30:10.282Z,99930.88
2023-02-03T08:32:58.411Z,99930.00
2023-02-03T08:35:47.557Z,99917.53
2023-02-03T08:38:34.586Z,99923.16
2023-02-03T08:41:22.001Z,99915.81
2023-02-03T08:44:09.120Z,99889.38
2023-02-03T08:46:56.342Z,99902.78
2023-02-03T08:49:43.757Z,99873.84
2023-02-03T08:52:30.960Z,99872.78
2023-02-03T08:55:18.085Z,99865.81
2023-02-03T08:58:05.319Z,99861.09
2023-02-03T09:00:53.403Z,99828.31
2023-02-03T09:03:41.160Z,99823.94
2023-02-03T09:06:30.150Z,99832.50
2023-02-03T09:09:17.949Z,99809.53
2023-02-03T09:12:07.404Z,99795.03
2023-02-03T09:14:54.589Z,99773.03
2023-02-03T09:17:42.060Z,99784.28
2023-02-03T09:20:29.786Z,99774.41
2023-02-03T09:25:55.535Z,99773.31
2023-02-03T09:28:42.771Z,99779.97
2023-02-03T09:31:29.891Z,99790.31
2023-02-03T09:34:17.005Z,99787.38
2023-02-03T09:37:04.574Z,99759.06
2023-02-03T09:39:52.452Z,99779.47
2023-02-03T09:42:58.214Z,99763.63
2023-02-03T09:45:45.322Z,99755.66
2023-02-03T09:48:42.749Z,99769.28
2023-02-03T09:51:36.685Z,99747.25
2023-02-03T09:54:44.257Z,99757.78
2023-02-03T09:57:44.693Z,99757.97
2023-02-03T10:00:46.662Z,99746.91
2023-02-03T10:04:02.244Z,99741.28
2023-02-03T10:06:50.092Z,99730.94
2023-02-03T10:09:50.629Z,99727.03
2023-02-03T10:12:43.403Z,99725.69
2023-02-03T10:15:48.533Z,99718.44
2023-02-03T10:18:42.197Z,99710.44
2023-02-03T10:21:37.416Z,99691.13
2023-02-03T10:25:12.328Z,99693.72
2023-02-03T10:28:05.077Z,99683.44
2023-02-03T10:31:08.937Z,99668.44
2023-02-03T10:34:17.105Z,99668.22
2023-02-03T10:37:13.931Z,99648.22
2023-02-03T10:40:02.198Z,99634.28
2023-02-03T10:43:08.127Z,99626.06
2023-02-03T10:45:55.364Z,99631.06
2023-02-03T10:48:42.629Z,99641.41
2023-02-03T10:51:40.464Z,99646.09
2023-02-03T10:54:33.980Z,99631.38
2023-02-03T10:57:21.222Z,99616.72
2023-02-03T11:00:30.751Z,99607.22
2023-02-03T11:03:27.957Z,99588.22
2023-02-03T11:06:17.185Z,99587.09
2023-02-03T11:09:25.313Z,99578.03
2023-02-03T11:12:15.037Z,99548.50
2023-02-03T11:15:06.302Z,99558.50
2023-02-03T11:17:53.379Z,99544.88
2023-02-03T11:20:40.665Z,99560.19
2023-02-03T11:23:27.781Z,99530.16
2023-02-03T11:26:19.351Z,99544.75
2023-02-03T11:29:08.398Z,99533.22
2023-02-03T11:31:58.055Z,99533.88
2023-02-03T11:34:58.391Z,99517.03
2023-02-03T11:37:49.352Z,99529.75
2023-02-03T11:40:38.661Z,99521.41
2023-02-03T11:43:26.877Z,99516.63
2023-02-03T11:46:15.800Z,99524.91
2023-02-03T11:49:41.872Z,99519.97
2023-02-03T11:52:50.430Z,99521.03
2023-02-03T11:55:49.880Z,99515.09
2023-02-03T11:59:20.935Z,99508.13
2023-02-03T12:02:49.970Z,99497.09
2023-02-03T12:06:21.613Z,99482.94
2023-02-03T12:09:17.969Z,99462.59
2023-02-03T12:12:04.990Z,99478.75
2023-02-03T12:15:01.015Z,99473.22
2023-02-03T12:18:12.457Z,99461.13
2023-02-03T12:21:29.272Z,99447.63
2023-02-03T12:24:35.949Z,99468.88
2023-02-03T12:28:06.177Z,99435.09
2023-02-03T12:30:55.715Z,99434.41
2023-02-03T12:33:48.782Z,99426.97
2023-02-03T12:36:53.787Z,99399.81
2023-02-03T12:39:48.346Z,99392.41
2023-02-03T12:42:47.373Z,99380.41
2023-02-03T12:45:38.452Z,99394.72
2023-02-03T12:48:34.021Z,99393.84
2023-02-03T12:51:47.272Z,99407.97
2023-02-03T12:54:45.701Z,99391.88
2023-02-03T12:57:44.628Z,99336.34
2023-02-03T13:01:00.660Z,99356.94
2023-02-03T13:04:11.757Z,99354.28
2023-02-03T13:07:13.218Z,99314.47
2023-02-03T13:10:14.773Z,99337.47
2023-02-03T13:13:04.889Z,99332.72
2023-02-03T13:15:54.398Z,99309.91
2023-02-03T13:18:52.296Z,99314.81
2023-02-03T13:21:39.607Z,99285.44
2023-02-03T13:24:29.298Z,99296.84
2023-02-03T13:27:52.693Z,99279.81
2023-02-03T13:31:01.604Z,99280.66
2023-02-03T13:33:51.328Z,99244.91
2023-02-03T13:36:51.831Z,99228.56
2023-02-03T13:40:01.980Z,99238.34
2023-02-03T13:42:55.543Z,99214.47
2023-02-03T13:45:47.193Z,99227.81
2023-02-03T13:48:35.278Z,99216.22
2023-02-03T13:51:34.191Z,99198.63
2023-02-03T13:54:30.295Z,99226.25
2023-02-03T13:57:34.477Z,99240.06
2023-02-03T14:00:43.339Z,99217.66
2023-02-03T14:03:30.438Z,99237.63
2023-02-03T14:06:36.468Z,99225.16
2023-02-03T14:09:36.081Z,99240.44
2023-02-03T14:12:36.272Z,99210.63
2023-02-03T14:15:23.256Z,99237.78
2023-02-03T14:18:33.151Z,99212.19
2023-02-03T14:21:23.744Z,99216.81
2023-02-03T14:24:12.748Z,99180.81
2023-02-03T14:27:01.217Z,99200.94
2023-02-03T14:30:07.283Z,99207.13
2023-02-03T14:33:00.127Z,99221.66
2023-02-03T14:35:47.399Z,99243.06
2023-02-03T14:38:34.555Z,99249.25
2023-02-03T14:42:03.858Z,99245.03
2023-02-03T14:45:18.752Z,99267.19
2023-02-03T14:48:15.640Z,99248.13
2023-02-03T14:51:30.624Z,99275.28
2023-02-03T14:54:38.984Z,99234.22
2023-02-03T14:57:28.852Z,99242.22
2023-02-03T15:00:28.554Z,99256.13
2023-02-03T15:03:21.824Z,99245.44
2023-02-03T15:06:38.972Z,99255.50
2023-02-03T15:09:46.022Z,99252.97
2023-02-03T15:12:39.187Z,99278.56
2023-02-03T15:15:32.959Z,99263.25
2023-02-03T15:18:28.565Z,99283.59
2023-02-03T15:21:20.603Z,99283.94
2023-02-03T15:24:18.761Z,99278.84
2023-02-03T15:27:05.831Z,99278.56
2023-02-03T15:29:53.976Z,99279.25
2023-02-03T15:32:47.762Z,99286.97
2023-02-03T15:35:37.414Z,99287.28
2023-02-03T15:38:34.922Z,99295.78
2023-02-03T15:41:26.403Z,99265.66
2023-02-03T15:44:26.325Z,99280.69
2023-02-03T15:47:40.879Z,99247.53
2023-02-03T15:50:31.408Z,99244.16
2023-02-03T15:53:27.668Z,99184.53
2023-02-03T15:56:35.781Z,99158.38
2023-02-03T15:59:29.579Z,99183.66
2023-02-03T16:02:19.331Z,99170.47
2023-02-03T16:05:33.082Z,99178.00
2023-02-03T16:08:40.589Z,99196.56
2023-02-03T16:11:31.889Z,99189.97
2023-02-03T16:14:36.014Z,99194.94
2023-02-03T16:17:23.190Z,99209.84
2023-02-03T16:20:13.367Z,99208.66
2023-02-03T16:23:02.150Z,99221.00
2023-02-03T16:26:18.643Z,99193.81
2023-02-03T16:29:26.894Z,99213.97
2023-02-03T16:32:37.961Z,99210.97
2023-02-03T16:35:43.758Z,99189.06
2023-02-03T16:38:49.467Z,99200.94
2023-02-03T16:41:56.731Z,99206.63
2023-02-03T16:45:04.440Z,99215.41
2023-02-03T16:48:10.328Z,99230.63
2023-02-03T16:51:04.057Z,99237.75
2023-02-03T16:53:51.231Z,99232.22
2023-02-03T16:56:38.840Z,99238.13
2023-02-03T16:59:26.057Z,99224.44
2023-02-03T17:02:14.249Z,99198.16
2023-02-03T17:05:02.589Z,99209.56
2023-02-03T17:07:51.540Z,99208.09
2023-02-03T17:10:41.494Z,99220.09
2023-02-03T17:13:28.651Z,99205.34
2023-02-03T17:16:19.363Z,99192.72
2023-02-03T17:19:06.618Z,99181.50
2023-02-03T17:21:54.345Z,99206.97
2023-02-03T17:24:41.668Z,99193.34
2023-02-03T17:27:29.233Z,99198.78
2023-02-03T17:30:16.959Z,99184.13
2023-02-03T17:33:14.706Z,99181.00
2023-02-03T17:36:12.393Z,99211.16
2023-02-03T17:54:31.053Z,99201.44
2023-02-03T17:57:18.101Z,99189.81
2023-02-03T18:00:07.001Z,99199.13
2023-02-03T18:02:54.380Z,99208.41
2023-02-03T18:05:52.004Z,99210.28
2023-02-03T18:08:40.183Z,99242.50
2023-02-03T18:11:30.414Z,99214.25
2023-02-03T18:14:18.276Z,99231.22
2023-02-03T18:17:05.565Z,99211.97
2023-02-03T18:19:56.285Z,99218.72
2023-02-03T18:22:45.312Z,99227.28
2023-02-03T18:25:35.885Z,99218.84
2023-02-03T18:28:25.006Z,99219.63
2023-02-03T18:31:16.393Z,99231.09
2023-02-03T18:34:06.432Z,99220.22
2023-02-03T18:36:54.677Z,99231.03
2023-02-03T18:39:48.829Z,99247.41
2023-02-03T18:42:37.687Z,99257.47
2023-02-03T18:45:25.905Z,99266.75
2023-02-03T18:48:14.511Z,99279.66
2023-02-03T18:51:03.055Z,99289.47
2023-02-03T18:53:51.474Z,99309.16
2023-02-03T18:56:45.711Z,99308.22
2023-02-03T18:59:34.673Z,99287.22
2023-02-03T19:02:26.259Z,99303.50
2023-02-03T19:05:14.683Z,99311.41
2023-02-03T19:08:02.756Z,99308.09
2023-02-03T19:10:57.263Z,99307.84
2023-02-03T19:13:45.348Z,99307.56
2023-02-03T19:16:33.397Z,99313.69
2023-02-03T19:19:21.971Z,99320.25
2023-02-03T19:22:12.227Z,99338.94
2023-02-03T19:25:00.601Z,99335.38
2023-02-03T19:27:50.079Z,99333.28
2023-02-03T19:30:37.921Z,99320.91
2023-02-03T19:33:25.800Z,99314.97
2023-02-03T19:36:14.358Z,99308.06
2023-02-03T19:39:02.334Z,99313.22
2023-02-03T19:41:52.921Z,99294.59
2023-02-03T19:44:41.124Z,99314.66
2023-02-03T19:47:29.524Z,99324.13
2023-02-03T19:50:18.109Z,99289.84
2023-02-03T19:53:08.930Z,99302.19
2023-02-03T19:55:56.545Z,99308.66
2023-02-03T19:58:46.696Z,99316.91
2023-02-03T20:01:34.812Z,99324.19
2023-02-03T20:04:23.185Z,99296.00
2023-02-03T20:07:14.326Z,99314.50
2023-02-03T20:10:02.957Z,99317.91
2023-02-03T20:12:51.090Z,99303.00
2023-02-03T20:15:39.055Z,99310.25
2023-02-03T20:18:27.415Z,99302.63
2023-02-03T20:21:15.127Z,99312.53
2023-02-03T20:24:03.429Z,99326.66
2023-02-03T20:26:53.009Z,99310.59
2023-02-03T20:29:41.028Z,99293.25
2023-02-03T20:32:28.887Z,99303.13
2023-02-03T20:35:17.348Z,99313.75
2023-02-03T20:38:05.789Z,99301.25
2023-02-03T20:40:53.326Z,99305.19
2023-02-03T20:43:41.510Z,99293.81
2023-02-03T20:46:29.375Z,99297.09
2023-02-03T20:49:19.056Z,99293.16
2023-02-03T20:52:13.548Z,99306.03
2023-02-03T20:55:00.904Z,99304.44
2023-02-03T20:57:52.280Z,99296.03
2023-02-03T21:00:39.655Z,99313.38
2023-02-03T21:03:46.362Z,99322.63
2023-02-03T21:06:35.604Z,99313.06
2023-02-03T21:09:25.055Z,99291.34
2023-02-03T21:12:14.035Z,99297.28
2023-02-03T21:15:02.149Z,99283.22
2023-02-03T21:17:50.254Z,99269.16
2023-02-03T21:20:38.872Z,99255.69
2023-02-03T21:23:40.663Z,99251.84
2023-02-03T21:26:34.670Z,99249.63
2023-02-03T21:29:42.455Z,99269.59
2023-02-03T21:32:41.149Z,99257.38
2023-02-03T21:35:39.540Z,99245.44
2023-02-03T21:38:33.221Z,99217.69
2023-02-03T21:41:22.706Z,99274.81
2023-02-03T21:44:27.994Z,99264.59
2023-02-03T21:47:19.269Z,99269.59
2023-02-03T21:50:33.116Z,99274.81
2023-02-03T21:53:33.466Z,99275.56
2023-02-03T21:56:43.289Z,99263.84
2023-02-03T21:59:39.413Z,99273.00
2023-02-03T22:02:52.943Z,99264.06
2023-02-03T22:05:41.212Z,99268.44
2023-02-03T22:08:28.709Z,99267.38
2023-02-03T22:11:18.715Z,99270.44
2023-02-03T22:14:06.114Z,99268.13
2023-02-03T22:16:53.535Z,99276.00
2023-02-03T22:19:41.206Z,99286.44
2023-02-03T22:22:28.906Z,99283.44
2023-02-03T22:25:16.042Z,99291.63
2023-02-03T22:28:03.257Z,99279.81
2023-02-03T22:30:50.398Z,99294.59
2023-02-03T22:33:37.847Z,99290.63
2023-02-03T22:36:25.987Z,99294.97
2023-02-03T22:39:13.473Z,99305.59
2023-02-03T22:42:00.544Z,99287.72
2023-02-03T22:44:47.841Z,99304.72
2023-02-03T22:47:35.075Z,99313.13
2023-02-03T22:50:34.343Z,99325.16
2023-02-03T22:53:22.234Z,99331.47
2023-02-03T22:56:09.458Z,99333.34
2023-02-03T22:58:56.533Z,99322.19
2023-02-03T23:01:43.659Z,99333.81
2023-02-03T23:04:30.721Z,99345.19
2023-02-03T23:07:17.980Z,99342.09
2023-02-03T23:10:07.016Z,99352.97
2023-02-03T23:12:54.170Z,99341.19
2023-02-03T23:15:41.273Z,99345.34
2023-02-03T23:18:28.410Z,99347.69
2023-02-03T23:21:15.477Z,99360.75
2023-02-03T23:24:02.713Z,99366.53
2023-02-03T23:26:49.789Z,99328.75
2023-02-03T23:29:38.339Z,99361.94
2023-02-03T23:32:25.486Z,99360.03
2023-02-03T23:35:31.926Z,99357.06
2023-02-03T23:38:19.052Z,99364.03
2023-02-03T23:41:06.111Z,99366.63
2023-02-03T23:43:53.235Z,99363.19
2023-02-03T23:46:40.443Z,99350.16
2023-02-03T23:49:27.498Z,99345.13
2023-02-03T23:52:14.599Z,99345.56
2023-02-03T23:55:12.131Z,99337.97
2023-02-03T23:57:59.300Z,99337.38
